sensor_id;sensor_type;location;lat;lon;timestamp;P1;durP1;ratioP1;P2;durP2;ratioP2
61085;SDS011;46967;48.876;2.136;2023-01-30T00:01:37;16.73;;;10.10;;
61085;SDS011;46967;48.876;2.136;2023-01-30T00:04:02;15.90;;;10.05;;
61085;SDS011;46967;48.876;2.136;2023-01-30T00:06:28;18.80;;;10.63;;
61085;SDS011;46967;48.876;2.136;2023-01-30T00:08:53;16.60;;;10.40;;
61085;SDS011;46967;48.876;2.136;2023-01-30T00:11:19;18.67;;;9.65;;
61085;SDS011;46967;48.876;2.136;2023-01-30T00:13:46;16.23;;;10.07;;
61085;SDS011;46967;48.876;2.136;2023-01-30T00:16:12;16.33;;;10.70;;
61085;SDS011;46967;48.876;2.136;2023-01-30T00:18:38;16.30;;;10.00;;
61085;SDS011;46967;48.876;2.136;2023-01-30T00:21:06;17.58;;;10.85;;
61085;SDS011;46967;48.876;2.136;2023-01-30T00:23:33;18.77;;;10.52;;
61085;SDS011;46967;48.876;2.136;2023-01-30T00:26:00;21.42;;;11.73;;
61085;SDS011;46967;48.876;2.136;2023-01-30T00:28:25;19.38;;;9.73;;
61085;SDS011;46967;48.876;2.136;2023-01-30T00:30:51;16.65;;;10.38;;
61085;SDS011;46967;48.876;2.136;2023-01-30T00:33:18;17.83;;;10.23;;
61085;SDS011;46967;48.876;2.136;2023-01-30T00:35:45;15.35;;;10.48;;
61085;SDS011;46967;48.876;2.136;2023-01-30T00:38:12;15.82;;;9.90;;
61085;SDS011;46967;48.876;2.136;2023-01-30T00:40:37;16.90;;;10.23;;
61085;SDS011;46967;48.876;2.136;2023-01-30T00:43:03;16.55;;;9.98;;
61085;SDS011;46967;48.876;2.136;2023-01-30T00:45:47;17.60;;;10.25;;
61085;SDS011;46967;48.876;2.136;2023-01-30T00:48:33;15.70;;;9.63;;
61085;SDS011;46967;48.876;2.136;2023-01-30T00:50:58;13.98;;;9.25;;
61085;SDS011;46967;48.876;2.136;2023-01-30T00:53:24;15.13;;;9.88;;
61085;SDS011;46967;48.876;2.136;2023-01-30T00:55:50;15.35;;;9.85;;
61085;SDS011;46967;48.876;2.136;2023-01-30T00:58:15;14.82;;;9.60;;
61085;SDS011;46967;48.876;2.136;2023-01-30T01:00:41;15.77;;;9.52;;
61085;SDS011;46967;48.876;2.136;2023-01-30T01:03:06;13.88;;;9.70;;
61085;SDS011;46967;48.876;2.136;2023-01-30T01:05:31;15.85;;;9.30;;
61085;SDS011;46967;48.876;2.136;2023-01-30T01:07:57;14.13;;;9.20;;
61085;SDS011;46967;48.876;2.136;2023-01-30T01:10:22;14.73;;;9.82;;
61085;SDS011;46967;48.876;2.136;2023-01-30T01:12:48;15.18;;;10.05;;
61085;SDS011;46967;48.876;2.136;2023-01-30T01:15:16;16.75;;;9.75;;
61085;SDS011;46967;48.876;2.136;2023-01-30T01:17:42;15.45;;;9.45;;
61085;SDS011;46967;48.876;2.136;2023-01-30T01:20:08;15.00;;;8.88;;
61085;SDS011;46967;48.876;2.136;2023-01-30T01:22:34;19.67;;;10.02;;
61085;SDS011;46967;48.876;2.136;2023-01-30T01:25:00;14.48;;;9.40;;
61085;SDS011;46967;48.876;2.136;2023-01-30T01:27:25;15.15;;;9.60;;
61085;SDS011;46967;48.876;2.136;2023-01-30T01:29:52;14.05;;;9.07;;
61085;SDS011;46967;48.876;2.136;2023-01-30T01:32:18;16.98;;;10.55;;
61085;SDS011;46967;48.876;2.136;2023-01-30T01:34:44;19.05;;;8.95;;
61085;SDS011;46967;48.876;2.136;2023-01-30T01:37:10;16.65;;;9.23;;
61085;SDS011;46967;48.876;2.136;2023-01-30T01:39:35;14.13;;;9.18;;
61085;SDS011;46967;48.876;2.136;2023-01-30T01:42:19;16.15;;;9.52;;
61085;SDS011;46967;48.876;2.136;2023-01-30T01:45:09;12.93;;;9.35;;
61085;SDS011;46967;48.876;2.136;2023-01-30T01:47:33;14.85;;;9.43;;
61085;SDS011;46967;48.876;2.136;2023-01-30T01:49:59;14.07;;;9.25;;
61085;SDS011;46967;48.876;2.136;2023-01-30T01:52:26;18.27;;;9.05;;
61085;SDS011;46967;48.876;2.136;2023-01-30T01:54:53;16.00;;;9.25;;
61085;SDS011;46967;48.876;2.136;2023-01-30T01:57:28;17.52;;;9.35;;
61085;SDS011;46967;48.876;2.136;2023-01-30T02:00:02;15.52;;;9.10;;
61085;SDS011;46967;48.876;2.136;2023-01-30T02:02:29;12.57;;;8.48;;
61085;SDS011;46967;48.876;2.136;2023-01-30T02:04:55;14.68;;;8.57;;
61085;SDS011;46967;48.876;2.136;2023-01-30T02:09:58;19.58;;;8.90;;
61085;SDS011;46967;48.876;2.136;2023-01-30T02:12:25;14.55;;;8.45;;
61085;SDS011;46967;48.876;2.136;2023-01-30T02:14:50;14.90;;;9.55;;
61085;SDS011;46967;48.876;2.136;2023-01-30T02:17:18;13.10;;;8.90;;
61085;SDS011;46967;48.876;2.136;2023-01-30T02:19:54;14.23;;;9.35;;
61085;SDS011;46967;48.876;2.136;2023-01-30T02:22:50;14.23;;;8.80;;
61085;SDS011;46967;48.876;2.136;2023-01-30T02:28:32;13.73;;;8.60;;
61085;SDS011;46967;48.876;2.136;2023-01-30T02:39:36;12.23;;;8.68;;
61085;SDS011;46967;48.876;2.136;2023-01-30T02:42:22;18.73;;;9.20;;
61085;SDS011;46967;48.876;2.136;2023-01-30T02:45:01;13.88;;;8.23;;
61085;SDS011;46967;48.876;2.136;2023-01-30T02:47:56;15.18;;;9.07;;
61085;SDS011;46967;48.876;2.136;2023-01-30T02:50:35;16.95;;;8.65;;
61085;SDS011;46967;48.876;2.136;2023-01-30T02:53:07;15.18;;;8.85;;
61085;SDS011;46967;48.876;2.136;2023-01-30T02:55:32;12.05;;;8.35;;
61085;SDS011;46967;48.876;2.136;2023-01-30T02:57:58;14.02;;;8.55;;
61085;SDS011;46967;48.876;2.136;2023-01-30T03:00:36;11.68;;;7.65;;
61085;SDS011;46967;48.876;2.136;2023-01-30T03:03:17;11.73;;;8.00;;
61085;SDS011;46967;48.876;2.136;2023-01-30T03:06:07;12.65;;;7.90;;
61085;SDS011;46967;48.876;2.136;2023-01-30T03:14:43;16.20;;;8.52;;
61085;SDS011;46967;48.876;2.136;2023-01-30T03:17:13;15.95;;;8.25;;
61085;SDS011;46967;48.876;2.136;2023-01-30T03:19:42;14.20;;;8.60;;
61085;SDS011;46967;48.876;2.136;2023-01-30T03:22:08;12.60;;;8.68;;
61085;SDS011;46967;48.876;2.136;2023-01-30T03:24:33;14.05;;;8.93;;
61085;SDS011;46967;48.876;2.136;2023-01-30T03:27:02;14.63;;;8.98;;
61085;SDS011;46967;48.876;2.136;2023-01-30T03:29:32;14.80;;;9.75;;
61085;SDS011;46967;48.876;2.136;2023-01-30T03:31:57;14.85;;;9.43;;
61085;SDS011;46967;48.876;2.136;2023-01-30T03:34:23;16.33;;;9.00;;
61085;SDS011;46967;48.876;2.136;2023-01-30T03:36:48;13.75;;;8.82;;
61085;SDS011;46967;48.876;2.136;2023-01-30T03:39:14;13.90;;;8.55;;
61085;SDS011;46967;48.876;2.136;2023-01-30T03:41:39;15.07;;;9.18;;
61085;SDS011;46967;48.876;2.136;2023-01-30T03:44:04;12.27;;;8.27;;
61085;SDS011;46967;48.876;2.136;2023-01-30T03:46:30;12.60;;;8.68;;
61085;SDS011;46967;48.876;2.136;2023-01-30T03:48:55;16.05;;;8.80;;
61085;SDS011;46967;48.876;2.136;2023-01-30T03:51:20;13.80;;;8.93;;
61085;SDS011;46967;48.876;2.136;2023-01-30T03:53:46;16.13;;;9.55;;
61085;SDS011;46967;48.876;2.136;2023-01-30T03:56:11;13.60;;;8.15;;
61085;SDS011;46967;48.876;2.136;2023-01-30T03:58:37;13.75;;;8.63;;
61085;SDS011;46967;48.876;2.136;2023-01-30T04:01:02;13.68;;;8.48;;
61085;SDS011;46967;48.876;2.136;2023-01-30T04:03:28;12.93;;;8.43;;
61085;SDS011;46967;48.876;2.136;2023-01-30T04:05:53;11.85;;;8.65;;
61085;SDS011;46967;48.876;2.136;2023-01-30T04:08:18;12.68;;;8.88;;
61085;SDS011;46967;48.876;2.136;2023-01-30T04:10:44;13.10;;;8.18;;
61085;SDS011;46967;48.876;2.136;2023-01-30T04:13:09;17.55;;;8.80;;
61085;SDS011;46967;48.876;2.136;2023-01-30T04:15:34;12.57;;;7.85;;
61085;SDS011;46967;48.876;2.136;2023-01-30T04:18:00;12.93;;;8.35;;
61085;SDS011;46967;48.876;2.136;2023-01-30T04:20:25;11.23;;;7.78;;
61085;SDS011;46967;48.876;2.136;2023-01-30T04:22:50;12.35;;;8.07;;
61085;SDS011;46967;48.876;2.136;2023-01-30T04:25:16;14.82;;;8.35;;
61085;SDS011;46967;48.876;2.136;2023-01-30T04:27:42;11.50;;;7.88;;
61085;SDS011;46967;48.876;2.136;2023-01-30T04:30:07;13.63;;;8.60;;
61085;SDS011;46967;48.876;2.136;2023-01-30T04:32:33;14.13;;;9.10;;
61085;SDS011;46967;48.876;2.136;2023-01-30T04:34:58;11.15;;;8.02;;
61085;SDS011;46967;48.876;2.136;2023-01-30T04:37:24;14.32;;;8.13;;
61085;SDS011;46967;48.876;2.136;2023-01-30T04:39:49;13.77;;;8.77;;
61085;SDS011;46967;48.876;2.136;2023-01-30T04:42:14;13.18;;;8.20;;
61085;SDS011;46967;48.876;2.136;2023-01-30T04:44:40;13.52;;;8.57;;
61085;SDS011;46967;48.876;2.136;2023-01-30T04:47:05;13.00;;;8.43;;
61085;SDS011;46967;48.876;2.136;2023-01-30T04:49:30;12.98;;;8.20;;
61085;SDS011;46967;48.876;2.136;2023-01-30T04:51:55;12.80;;;8.02;;
61085;SDS011;46967;48.876;2.136;2023-01-30T04:54:21;14.75;;;8.70;;
61085;SDS011;46967;48.876;2.136;2023-01-30T04:56:46;13.02;;;8.35;;
61085;SDS011;46967;48.876;2.136;2023-01-30T04:59:12;14.60;;;8.70;;
61085;SDS011;46967;48.876;2.136;2023-01-30T05:01:37;12.20;;;7.70;;
61085;SDS011;46967;48.876;2.136;2023-01-30T05:04:04;16.63;;;8.65;;
61085;SDS011;46967;48.876;2.136;2023-01-30T05:06:30;13.23;;;8.63;;
61085;SDS011;46967;48.876;2.136;2023-01-30T05:08:57;13.07;;;8.20;;
61085;SDS011;46967;48.876;2.136;2023-01-30T05:11:23;14.93;;;9.15;;
61085;SDS011;46967;48.876;2.136;2023-01-30T05:13:50;12.93;;;7.82;;
61085;SDS011;46967;48.876;2.136;2023-01-30T05:16:16;12.27;;;8.18;;
61085;SDS011;46967;48.876;2.136;2023-01-30T05:18:42;12.10;;;8.15;;
61085;SDS011;46967;48.876;2.136;2023-01-30T05:21:09;13.75;;;7.72;;
61085;SDS011;46967;48.876;2.136;2023-01-30T05:23:54;12.98;;;8.68;;
61085;SDS011;46967;48.876;2.136;2023-01-30T05:26:20;12.52;;;8.73;;
61085;SDS011;46967;48.876;2.136;2023-01-30T05:28:53;18.23;;;8.65;;
61085;SDS011;46967;48.876;2.136;2023-01-30T05:31:21;14.40;;;8.65;;
61085;SDS011;46967;48.876;2.136;2023-01-30T05:33:47;12.07;;;8.52;;
61085;SDS011;46967;48.876;2.136;2023-01-30T05:36:14;13.38;;;7.97;;
61085;SDS011;46967;48.876;2.136;2023-01-30T05:38:41;14.65;;;8.65;;
61085;SDS011;46967;48.876;2.136;2023-01-30T05:41:08;15.25;;;9.30;;
61085;SDS011;46967;48.876;2.136;2023-01-30T05:43:34;14.82;;;8.93;;
61085;SDS011;46967;48.876;2.136;2023-01-30T05:46:03;13.80;;;7.95;;
61085;SDS011;46967;48.876;2.136;2023-01-30T05:48:30;12.88;;;8.38;;
61085;SDS011;46967;48.876;2.136;2023-01-30T05:50:56;13.43;;;8.77;;
61085;SDS011;46967;48.876;2.136;2023-01-30T05:53:24;13.60;;;8.55;;
61085;SDS011;46967;48.876;2.136;2023-01-30T05:55:55;12.30;;;7.97;;
61085;SDS011;46967;48.876;2.136;2023-01-30T05:58:25;11.70;;;7.60;;
61085;SDS011;46967;48.876;2.136;2023-01-30T06:00:51;12.07;;;7.95;;
61085;SDS011;46967;48.876;2.136;2023-01-30T06:03:17;12.48;;;7.68;;
61085;SDS011;46967;48.876;2.136;2023-01-30T06:05:43;14.07;;;7.88;;
61085;SDS011;46967;48.876;2.136;2023-01-30T06:08:08;13.57;;;7.88;;
61085;SDS011;46967;48.876;2.136;2023-01-30T06:10:34;11.43;;;7.38;;
61085;SDS011;46967;48.876;2.136;2023-01-30T06:13:00;11.60;;;7.32;;
61085;SDS011;46967;48.876;2.136;2023-01-30T06:15:25;11.85;;;7.53;;
61085;SDS011;46967;48.876;2.136;2023-01-30T06:17:50;13.80;;;7.47;;
61085;SDS011;46967;48.876;2.136;2023-01-30T06:20:16;10.30;;;7.10;;
61085;SDS011;46967;48.876;2.136;2023-01-30T06:22:41;12.18;;;7.55;;
61085;SDS011;46967;48.876;2.136;2023-01-30T06:25:07;14.15;;;7.45;;
61085;SDS011;46967;48.876;2.136;2023-01-30T06:27:33;10.85;;;7.10;;
61085;SDS011;46967;48.876;2.136;2023-01-30T06:29:58;10.77;;;7.18;;
61085;SDS011;46967;48.876;2.136;2023-01-30T06:32:24;11.70;;;7.57;;
61085;SDS011;46967;48.876;2.136;2023-01-30T06:34:49;9.73;;;6.38;;
61085;SDS011;46967;48.876;2.136;2023-01-30T06:37:14;13.23;;;7.97;;
61085;SDS011;46967;48.876;2.136;2023-01-30T06:39:40;10.80;;;7.47;;
61085;SDS011;46967;48.876;2.136;2023-01-30T06:42:05;11.20;;;6.50;;
61085;SDS011;46967;48.876;2.136;2023-01-30T06:44:31;13.20;;;7.93;;
61085;SDS011;46967;48.876;2.136;2023-01-30T06:46:56;12.68;;;7.75;;
61085;SDS011;46967;48.876;2.136;2023-01-30T06:49:21;12.60;;;8.00;;
61085;SDS011;46967;48.876;2.136;2023-01-30T06:51:47;13.40;;;8.00;;
61085;SDS011;46967;48.876;2.136;2023-01-30T06:54:12;13.00;;;8.55;;
61085;SDS011;46967;48.876;2.136;2023-01-30T06:56:38;12.02;;;7.70;;
61085;SDS011;46967;48.876;2.136;2023-01-30T06:59:03;11.73;;;7.50;;
61085;SDS011;46967;48.876;2.136;2023-01-30T07:01:28;14.52;;;8.18;;
61085;SDS011;46967;48.876;2.136;2023-01-30T07:03:54;12.65;;;8.25;;
61085;SDS011;46967;48.876;2.136;2023-01-30T07:06:19;18.23;;;7.60;;
61085;SDS011;46967;48.876;2.136;2023-01-30T07:08:44;11.60;;;7.25;;
61085;SDS011;46967;48.876;2.136;2023-01-30T07:11:10;12.13;;;7.38;;
61085;SDS011;46967;48.876;2.136;2023-01-30T07:13:35;13.13;;;8.20;;
61085;SDS011;46967;48.876;2.136;2023-01-30T07:16:00;15.90;;;7.03;;
61085;SDS011;46967;48.876;2.136;2023-01-30T07:18:26;12.25;;;8.38;;
61085;SDS011;46967;48.876;2.136;2023-01-30T07:20:51;13.55;;;7.90;;
61085;SDS011;46967;48.876;2.136;2023-01-30T07:23:16;12.38;;;8.05;;
61085;SDS011;46967;48.876;2.136;2023-01-30T07:25:42;11.48;;;7.63;;
61085;SDS011;46967;48.876;2.136;2023-01-30T07:28:07;15.48;;;8.70;;
61085;SDS011;46967;48.876;2.136;2023-01-30T07:30:33;15.55;;;8.60;;
61085;SDS011;46967;48.876;2.136;2023-01-30T07:33:00;12.88;;;8.15;;
61085;SDS011;46967;48.876;2.136;2023-01-30T07:35:29;13.30;;;8.43;;
61085;SDS011;46967;48.876;2.136;2023-01-30T07:37:56;12.35;;;7.95;;
61085;SDS011;46967;48.876;2.136;2023-01-30T07:40:22;13.32;;;8.60;;
61085;SDS011;46967;48.876;2.136;2023-01-30T07:45:27;15.35;;;8.90;;
61085;SDS011;46967;48.876;2.136;2023-01-30T07:47:58;17.13;;;8.65;;
61085;SDS011;46967;48.876;2.136;2023-01-30T07:50:23;14.13;;;8.65;;
61085;SDS011;46967;48.876;2.136;2023-01-30T07:52:48;11.85;;;7.78;;
61085;SDS011;46967;48.876;2.136;2023-01-30T07:55:14;12.75;;;8.02;;
61085;SDS011;46967;48.876;2.136;2023-01-30T07:57:39;13.25;;;8.45;;
61085;SDS011;46967;48.876;2.136;2023-01-30T08:00:05;11.85;;;7.72;;
61085;SDS011;46967;48.876;2.136;2023-01-30T08:02:31;11.95;;;8.38;;
61085;SDS011;46967;48.876;2.136;2023-01-30T08:04:57;13.43;;;8.48;;
61085;SDS011;46967;48.876;2.136;2023-01-30T08:07:22;12.55;;;7.97;;
61085;SDS011;46967;48.876;2.136;2023-01-30T08:09:47;11.77;;;7.57;;
61085;SDS011;46967;48.876;2.136;2023-01-30T08:12:13;13.80;;;7.53;;
61085;SDS011;46967;48.876;2.136;2023-01-30T08:14:38;15.40;;;8.00;;
61085;SDS011;46967;48.876;2.136;2023-01-30T08:17:03;13.38;;;8.60;;
61085;SDS011;46967;48.876;2.136;2023-01-30T08:19:29;12.30;;;8.02;;
61085;SDS011;46967;48.876;2.136;2023-01-30T08:21:54;14.75;;;8.30;;
61085;SDS011;46967;48.876;2.136;2023-01-30T08:24:19;11.98;;;7.95;;
61085;SDS011;46967;48.876;2.136;2023-01-30T08:26:46;11.32;;;7.63;;
61085;SDS011;46967;48.876;2.136;2023-01-30T08:29:13;10.55;;;7.25;;
61085;SDS011;46967;48.876;2.136;2023-01-30T08:31:38;14.05;;;8.85;;
61085;SDS011;46967;48.876;2.136;2023-01-30T08:34:03;10.90;;;7.32;;
61085;SDS011;46967;48.876;2.136;2023-01-30T08:36:29;12.05;;;7.55;;
61085;SDS011;46967;48.876;2.136;2023-01-30T08:38:54;11.27;;;7.57;;
61085;SDS011;46967;48.876;2.136;2023-01-30T08:41:19;9.98;;;6.63;;
61085;SDS011;46967;48.876;2.136;2023-01-30T08:43:45;10.32;;;7.20;;
61085;SDS011;46967;48.876;2.136;2023-01-30T08:46:10;10.60;;;7.15;;
61085;SDS011;46967;48.876;2.136;2023-01-30T08:48:35;9.82;;;7.07;;
61085;SDS011;46967;48.876;2.136;2023-01-30T08:51:04;12.07;;;7.30;;
61085;SDS011;46967;48.876;2.136;2023-01-30T08:53:30;14.32;;;7.85;;
61085;SDS011;46967;48.876;2.136;2023-01-30T08:55:55;12.27;;;7.22;;
61085;SDS011;46967;48.876;2.136;2023-01-30T08:58:21;11.90;;;7.55;;
61085;SDS011;46967;48.876;2.136;2023-01-30T09:00:46;10.68;;;7.32;;
61085;SDS011;46967;48.876;2.136;2023-01-30T09:03:13;11.52;;;7.15;;
61085;SDS011;46967;48.876;2.136;2023-01-30T09:05:38;13.60;;;7.05;;
61085;SDS011;46967;48.876;2.136;2023-01-30T09:08:04;10.70;;;6.97;;
61085;SDS011;46967;48.876;2.136;2023-01-30T09:10:29;12.02;;;7.03;;
61085;SDS011;46967;48.876;2.136;2023-01-30T09:12:55;8.50;;;6.55;;
61085;SDS011;46967;48.876;2.136;2023-01-30T09:15:20;10.25;;;6.50;;
61085;SDS011;46967;48.876;2.136;2023-01-30T09:17:46;9.73;;;6.25;;
61085;SDS011;46967;48.876;2.136;2023-01-30T09:20:11;13.60;;;7.47;;
61085;SDS011;46967;48.876;2.136;2023-01-30T09:22:37;10.20;;;6.78;;
61085;SDS011;46967;48.876;2.136;2023-01-30T09:25:03;10.50;;;7.43;;
61085;SDS011;46967;48.876;2.136;2023-01-30T09:27:30;9.45;;;6.50;;
61085;SDS011;46967;48.876;2.136;2023-01-30T09:29:55;14.10;;;6.82;;
61085;SDS011;46967;48.876;2.136;2023-01-30T09:32:21;12.18;;;7.18;;
61085;SDS011;46967;48.876;2.136;2023-01-30T09:34:46;11.07;;;6.70;;
61085;SDS011;46967;48.876;2.136;2023-01-30T09:37:12;9.57;;;6.25;;
61085;SDS011;46967;48.876;2.136;2023-01-30T09:39:38;13.77;;;6.72;;
61085;SDS011;46967;48.876;2.136;2023-01-30T09:47:14;9.95;;;6.43;;
61085;SDS011;46967;48.876;2.136;2023-01-30T09:49:53;9.65;;;6.38;;
61085;SDS011;46967;48.876;2.136;2023-01-30T09:57:48;11.70;;;6.70;;
61085;SDS011;46967;48.876;2.136;2023-01-30T10:00:21;12.40;;;7.55;;
61085;SDS011;46967;48.876;2.136;2023-01-30T10:05:24;11.88;;;7.10;;
61085;SDS011;46967;48.876;2.136;2023-01-30T10:08:03;13.32;;;7.05;;
61085;SDS011;46967;48.876;2.136;2023-01-30T10:10:53;11.50;;;7.53;;
61085;SDS011;46967;48.876;2.136;2023-01-30T10:16:09;13.43;;;8.50;;
61085;SDS011;46967;48.876;2.136;2023-01-30T10:21:31;9.60;;;6.65;;
61085;SDS011;46967;48.876;2.136;2023-01-30T10:26:47;10.60;;;7.68;;
61085;SDS011;46967;48.876;2.136;2023-01-30T10:29:20;12.82;;;7.95;;
61085;SDS011;46967;48.876;2.136;2023-01-30T10:34:34;8.88;;;5.95;;
61085;SDS011;46967;48.876;2.136;2023-01-30T10:37:07;7.93;;;5.78;;
61085;SDS011;46967;48.876;2.136;2023-01-30T10:39:41;8.18;;;5.70;;
61085;SDS011;46967;48.876;2.136;2023-01-30T10:42:15;8.80;;;5.25;;
61085;SDS011;46967;48.876;2.136;2023-01-30T10:44:47;6.75;;;4.82;;
61085;SDS011;46967;48.876;2.136;2023-01-30T10:49:51;8.57;;;4.82;;
61085;SDS011;46967;48.876;2.136;2023-01-30T10:52:21;5.93;;;4.57;;
61085;SDS011;46967;48.876;2.136;2023-01-30T10:57:38;7.35;;;4.90;;
61085;SDS011;46967;48.876;2.136;2023-01-30T11:05:12;6.82;;;4.57;;
61085;SDS011;46967;48.876;2.136;2023-01-30T11:07:40;7.15;;;4.38;;
61085;SDS011;46967;48.876;2.136;2023-01-30T11:10:21;6.03;;;4.57;;
61085;SDS011;46967;48.876;2.136;2023-01-30T11:12:52;5.65;;;3.92;;
61085;SDS011;46967;48.876;2.136;2023-01-30T11:15:22;7.07;;;4.28;;
61085;SDS011;46967;48.876;2.136;2023-01-30T11:17:50;6.20;;;4.22;;
61085;SDS011;46967;48.876;2.136;2023-01-30T11:20:29;6.13;;;4.03;;
61085;SDS011;46967;48.876;2.136;2023-01-30T11:23:05;5.30;;;3.70;;
61085;SDS011;46967;48.876;2.136;2023-01-30T11:25:48;5.35;;;3.63;;
61085;SDS011;46967;48.876;2.136;2023-01-30T11:28:15;5.57;;;3.97;;
61085;SDS011;46967;48.876;2.136;2023-01-30T11:30:42;6.57;;;4.05;;
61085;SDS011;46967;48.876;2.136;2023-01-30T11:35:33;7.57;;;4.07;;
61085;SDS011;46967;48.876;2.136;2023-01-30T11:38:10;6.15;;;3.97;;
61085;SDS011;46967;48.876;2.136;2023-01-30T11:40:45;7.43;;;4.18;;
61085;SDS011;46967;48.876;2.136;2023-01-30T11:43:11;9.07;;;4.18;;
61085;SDS011;46967;48.876;2.136;2023-01-30T11:45:45;4.70;;;3.53;;
61085;SDS011;46967;48.876;2.136;2023-01-30T11:48:16;6.68;;;3.85;;
61085;SDS011;46967;48.876;2.136;2023-01-30T11:50:45;6.13;;;3.55;;
61085;SDS011;46967;48.876;2.136;2023-01-30T11:55:44;6.88;;;3.13;;
61085;SDS011;46967;48.876;2.136;2023-01-30T11:58:11;5.45;;;3.42;;
61085;SDS011;46967;48.876;2.136;2023-01-30T12:00:42;5.95;;;3.58;;
61085;SDS011;46967;48.876;2.136;2023-01-30T12:03:13;5.43;;;3.30;;
61085;SDS011;46967;48.876;2.136;2023-01-30T12:05:43;6.05;;;3.75;;
61085;SDS011;46967;48.876;2.136;2023-01-30T12:10:49;4.38;;;3.35;;
61085;SDS011;46967;48.876;2.136;2023-01-30T12:15:56;5.07;;;3.55;;
61085;SDS011;46967;48.876;2.136;2023-01-30T12:18:34;4.70;;;3.25;;
61085;SDS011;46967;48.876;2.136;2023-01-30T12:21:08;4.15;;;3.05;;
61085;SDS011;46967;48.876;2.136;2023-01-30T12:23:51;4.15;;;2.85;;
61085;SDS011;46967;48.876;2.136;2023-01-30T12:26:32;5.43;;;3.17;;
61085;SDS011;46967;48.876;2.136;2023-01-30T12:29:27;5.65;;;3.33;;
61085;SDS011;46967;48.876;2.136;2023-01-30T12:32:07;10.30;;;3.05;;
61085;SDS011;46967;48.876;2.136;2023-01-30T12:34:37;6.78;;;3.92;;
61085;SDS011;46967;48.876;2.136;2023-01-30T12:45:39;4.07;;;2.88;;
61085;SDS011;46967;48.876;2.136;2023-01-30T12:48:35;6.88;;;2.78;;
61085;SDS011;46967;48.876;2.136;2023-01-30T12:51:12;3.45;;;2.85;;
61085;SDS011;46967;48.876;2.136;2023-01-30T12:53:49;5.10;;;2.60;;
61085;SDS011;46967;48.876;2.136;2023-01-30T13:14:48;3.92;;;2.80;;
61085;SDS011;46967;48.876;2.136;2023-01-30T13:25:37;6.03;;;3.03;;
61085;SDS011;46967;48.876;2.136;2023-01-30T13:28:15;4.55;;;2.75;;
61085;SDS011;46967;48.876;2.136;2023-01-30T13:30:48;4.10;;;2.47;;
61085;SDS011;46967;48.876;2.136;2023-01-30T13:33:25;4.47;;;3.08;;
61085;SDS011;46967;48.876;2.136;2023-01-30T13:38:41;6.90;;;2.50;;
61085;SDS011;46967;48.876;2.136;2023-01-30T13:41:16;6.90;;;3.00;;
61085;SDS011;46967;48.876;2.136;2023-01-30T13:43:45;4.13;;;2.30;;
61085;SDS011;46967;48.876;2.136;2023-01-30T13:46:17;4.82;;;2.90;;
61085;SDS011;46967;48.876;2.136;2023-01-30T13:48:51;5.70;;;2.67;;
61085;SDS011;46967;48.876;2.136;2023-01-30T13:56:59;4.43;;;2.85;;
61085;SDS011;46967;48.876;2.136;2023-01-30T14:02:16;3.88;;;2.60;;
61085;SDS011;46967;48.876;2.136;2023-01-30T14:04:44;3.90;;;2.58;;
61085;SDS011;46967;48.876;2.136;2023-01-30T14:09:36;7.72;;;2.80;;
61085;SDS011;46967;48.876;2.136;2023-01-30T14:12:05;5.43;;;2.90;;
61085;SDS011;46967;48.876;2.136;2023-01-30T14:14:34;5.45;;;2.95;;
61085;SDS011;46967;48.876;2.136;2023-01-30T14:19:36;6.68;;;3.30;;
61085;SDS011;46967;48.876;2.136;2023-01-30T14:27:54;6.55;;;2.58;;
61085;SDS011;46967;48.876;2.136;2023-01-30T14:35:43;6.20;;;3.33;;
61085;SDS011;46967;48.876;2.136;2023-01-30T14:40:39;5.43;;;2.20;;
61085;SDS011;46967;48.876;2.136;2023-01-30T15:04:31;8.93;;;2.80;;
61085;SDS011;46967;48.876;2.136;2023-01-30T15:07:08;5.30;;;3.10;;
61085;SDS011;46967;48.876;2.136;2023-01-30T15:09:37;8.05;;;2.80;;
61085;SDS011;46967;48.876;2.136;2023-01-30T15:12:14;9.75;;;2.80;;
61085;SDS011;46967;48.876;2.136;2023-01-30T15:18:09;6.28;;;2.50;;
61085;SDS011;46967;48.876;2.136;2023-01-30T15:23:47;10.85;;;2.95;;
61085;SDS011;46967;48.876;2.136;2023-01-30T15:26:26;6.13;;;3.05;;
61085;SDS011;46967;48.876;2.136;2023-01-30T15:31:27;8.48;;;2.70;;
61085;SDS011;46967;48.876;2.136;2023-01-30T15:33:53;5.45;;;2.65;;
61085;SDS011;46967;48.876;2.136;2023-01-30T15:36:28;7.93;;;2.72;;
61085;SDS011;46967;48.876;2.136;2023-01-30T15:38:59;9.02;;;2.78;;
61085;SDS011;46967;48.876;2.136;2023-01-30T15:41:25;6.38;;;2.70;;
61085;SDS011;46967;48.876;2.136;2023-01-30T15:49:38;9.27;;;3.22;;
61085;SDS011;46967;48.876;2.136;2023-01-30T15:52:12;8.02;;;2.22;;
61085;SDS011;46967;48.876;2.136;2023-01-30T15:54:45;8.15;;;2.40;;
61085;SDS011;46967;48.876;2.136;2023-01-30T15:57:12;9.80;;;2.80;;
61085;SDS011;46967;48.876;2.136;2023-01-30T15:59:46;10.00;;;2.30;;
61085;SDS011;46967;48.876;2.136;2023-01-30T16:02:13;10.15;;;2.63;;
61085;SDS011;46967;48.876;2.136;2023-01-30T16:04:42;8.65;;;2.30;;
61085;SDS011;46967;48.876;2.136;2023-01-30T16:07:23;7.63;;;2.60;;
61085;SDS011;46967;48.876;2.136;2023-01-30T16:09:56;8.55;;;2.53;;
61085;SDS011;46967;48.876;2.136;2023-01-30T16:12:23;6.70;;;2.65;;
61085;SDS011;46967;48.876;2.136;2023-01-30T16:14:49;8.80;;;1.90;;
61085;SDS011;46967;48.876;2.136;2023-01-30T16:17:14;7.10;;;1.60;;
61085;SDS011;46967;48.876;2.136;2023-01-30T16:19:42;8.60;;;1.88;;
61085;SDS011;46967;48.876;2.136;2023-01-30T16:22:14;7.30;;;1.77;;
61085;SDS011;46967;48.876;2.136;2023-01-30T16:24:42;7.70;;;1.63;;
61085;SDS011;46967;48.876;2.136;2023-01-30T16:27:15;6.32;;;1.95;;
61085;SDS011;46967;48.876;2.136;2023-01-30T16:30:03;8.23;;;1.95;;
61085;SDS011;46967;48.876;2.136;2023-01-30T16:32:32;9.95;;;2.17;;
61085;SDS011;46967;48.876;2.136;2023-01-30T16:35:14;10.85;;;1.70;;
61085;SDS011;46967;48.876;2.136;2023-01-30T16:37:41;7.93;;;1.70;;
61085;SDS011;46967;48.876;2.136;2023-01-30T16:42:34;11.50;;;1.90;;
61085;SDS011;46967;48.876;2.136;2023-01-30T16:47:54;9.88;;;2.08;;
61085;SDS011;46967;48.876;2.136;2023-01-30T16:50:43;8.40;;;2.20;;
61085;SDS011;46967;48.876;2.136;2023-01-30T16:53:14;8.18;;;1.70;;
61085;SDS011;46967;48.876;2.136;2023-01-30T16:56:07;10.55;;;1.98;;
61085;SDS011;46967;48.876;2.136;2023-01-30T16:58:34;6.75;;;2.45;;
61085;SDS011;46967;48.876;2.136;2023-01-30T17:01:03;9.60;;;1.63;;
61085;SDS011;46967;48.876;2.136;2023-01-30T17:03:34;7.32;;;1.80;;
61085;SDS011;46967;48.876;2.136;2023-01-30T17:06:03;7.25;;;1.98;;
61085;SDS011;46967;48.876;2.136;2023-01-30T17:11:32;7.73;;;1.60;;
61085;SDS011;46967;48.876;2.136;2023-01-30T17:14:22;7.93;;;2.08;;
61085;SDS011;46967;48.876;2.136;2023-01-30T17:16:59;11.52;;;3.42;;
61085;SDS011;46967;48.876;2.136;2023-01-30T17:19:30;6.05;;;1.90;;
61085;SDS011;46967;48.876;2.136;2023-01-30T17:21:56;6.45;;;1.80;;
61085;SDS011;46967;48.876;2.136;2023-01-30T17:24:23;11.00;;;2.33;;
61085;SDS011;46967;48.876;2.136;2023-01-30T17:26:56;7.07;;;1.92;;
61085;SDS011;46967;48.876;2.136;2023-01-30T17:29:28;10.55;;;2.40;;
61085;SDS011;46967;48.876;2.136;2023-01-30T17:31:55;11.35;;;2.40;;
61085;SDS011;46967;48.876;2.136;2023-01-30T17:34:21;5.63;;;2.05;;
61085;SDS011;46967;48.876;2.136;2023-01-30T17:36:47;8.35;;;2.08;;
61085;SDS011;46967;48.876;2.136;2023-01-30T17:39:15;7.05;;;2.40;;
61085;SDS011;46967;48.876;2.136;2023-01-30T17:41:42;9.95;;;2.13;;
61085;SDS011;46967;48.876;2.136;2023-01-30T17:44:08;5.80;;;1.80;;
61085;SDS011;46967;48.876;2.136;2023-01-30T17:51:40;4.72;;;1.83;;